Simmonstown, Pennsylvania
Current Conditions -  °F | °C
As of 11:35 AM on Sunday 21 Dec 2014 (Local Time) from KMQS Reporting Station
Broken Clouds Broken Clouds  
Wind Chill: 28°   Ceiling: 2500
Heat Index: 34°   Visibility: 10mi
Dew Point: 25°   Wind: 7mph
Humidity: 70%   Direction: 350°N
Pressure: 30.31"   Gusts: NA
Location:  40.0073°N, 75.9953°W
Report Text: KMQS 211635Z AUTO 35006KT 10SM BKN025 01/M04 A3031 RMK AO2
Loading
Personal Weather Stations






























Interactive Weather Map New forecast layout! Learn more

10-Day Weather Forecast

Advertisements
Track Severe Weather on mobile